Silver Lake, Kansas
Current Conditions -  °F | °C
As of 9:53 AM on Saturday 25 Oct 2014 (Local Time) from KTOP Reporting Station
Moderate Fog Moderate Fog  
Wind Chill: 57°   Ceiling: 200
Heat Index: 57°   Visibility: 0mi
Dew Point: 57°   Wind: 0mph
Humidity: 100%   Direction: NA
Pressure: 30.09"   Gusts: NA
Location:  39.1°N, 95.86°W
Report Text: KTOP 251453Z 00000KT M1/4SM FG VV002 14/14 A3009 RMK AO2 SLP187 T01390139 53014
Loading
Personal Weather Stations






























Interactive Weather Map
Tropical Storm Tracking
New forecast layout! Learn more

10-Day Weather Forecast

Advertisements
Track Severe Weather on mobile